Impacts METAR Board
IDs:

KPIT - Pittsburgh Intl, PA, US

Updated at: 0500 UTC 17 Aug 2018
Potential Impact None Slight Moderate High
Time 16/17Z 16/18Z 16/19Z 16/20Z 16/21Z 16/22Z 16/23Z 17/00Z 17/01Z 17/02Z 17/03Z 17/04Z 17/05Z
Temp75 76 73 73 76 76 75 74 72 72 71 71 71
Dewpt68 68 70 71 70 69 72 70 70 69 68 68 68
Altim30.13 30.12 30.13 30.09 30.09 30.10 30.09 30.09 30.08 30.08 30.08 30.08 30.07
VIS10 10 0.5 10 10 10 10 10 10 10 10 10 10
CIG60 130 25 150 110 120 130 70 70 85 90 65 75
CoverOVCOVCOVCBKNOVCOVCBKNOVCOVCOVCOVCOVCOVC
FltCatVFRVFRLIFRVFRVFRVFRVFRVFRVFRVFRVFRVFRVFR
WX----+TSRA FG-------------------RA
WDir2500290260270200120150160150170170170
WSpd4 0 25 5 4 4 7 7 5 6 7 4 4
WGst-- -- -- -- -- -- -- -- -- -- -- -- --
Raw hourly METARs
KPIT 161651Z 25004KT 10SM FEW020 BKN060 OVC140 24/20 A3013 RMK AO2 SLP202 T02390200
KPIT 161751Z 00000KT 10SM FEW050 BKN130 OVC200 24/20 A3012 RMK AO2 LTG DSNT SW SLP198 T02440200 10250 20206 58001
KPIT 161855Z 29025KT 1/2SM R28R/2800VP6000FT +TSRA FG BKN025 BKN038CB OVC045 23/21 A3013 RMK AO2 PK WND 29030/1855 LTG DSNT SW AND W FRG LTGICCG OHD TS OHD MOV NE P0000 T02280211 VISNO SE
KPIT 162004Z 26005KT 10SM FEW028 SCT060 BKN150 23/22 A3009 RMK AO2 LTG DSNT NE-SE TSE03 T02280217
KPIT 162051Z 27004KT 10SM FEW065 BKN110 OVC180 24/21 A3009 RMK AO2 LTG DSNT E AND SE TSE03 SLP187 60058 T02440211 58010
KPIT 162151Z 20004KT 10SM FEW060 BKN120 OVC200 24/21 A3010 RMK AO2 SLP193 T02440206
KPIT 162251Z 12007KT 10SM FEW065 BKN130 BKN200 24/22 A3009 RMK AO2 SLP188 T02390222
KPIT 162351Z 15007KT 10SM FEW055 BKN070 OVC150 23/21 A3009 RMK AO2 SLP188 60058 T02330211 10250 20200 58000
KPIT 170051Z 16005KT 10SM FEW050 BKN070 OVC110 22/21 A3008 RMK AO2 SLP185 T02220211
KPIT 170151Z 15006KT 10SM OVC085 22/21 A3008 RMK AO2 SLP185 T02220206
KPIT 170251Z 17007KT 10SM FEW065 OVC090 22/20 A3008 RMK AO2 SLP184 T02170200 56003
KPIT 170351Z 17004KT 10SM OVC065 22/20 A3008 RMK AO2 SLP183 T02170200
KPIT 170451Z 17004KT 10SM -RA FEW044 FEW060 OVC075 22/20 A3007 RMK AO2 RAB47 SLP181 P0000 T02170200 402500194



Page loaded:  05:25 UTC  |   10:25 PM Pacific  |   11:25 PM Mountain  |   12:25 AM Central  |   01:25 AM Eastern

 

ADVISORIES

FORECASTS

FORECASTS

OBSERVATIONS

USER TOOLS

ABOUT US